sensor_id;sensor_type;location;lat;lon;timestamp;pressure;altitude;pressure_sealevel;temperature;humidity
36014;BME280;22275;43.208;27.620;2023-08-07T00:00:19;100249.31;;;27.79;100.00
36014;BME280;22275;43.208;27.620;2023-08-07T00:02:47;100248.91;;;27.76;100.00
36014;BME280;22275;43.208;27.620;2023-08-07T00:05:15;100236.09;;;27.52;100.00
36014;BME280;22275;43.208;27.620;2023-08-07T00:07:43;100243.38;;;27.51;100.00
36014;BME280;22275;43.208;27.620;2023-08-07T00:10:11;100248.59;;;27.53;100.00
36014;BME280;22275;43.208;27.620;2023-08-07T00:12:39;100245.47;;;27.56;100.00
36014;BME280;22275;43.208;27.620;2023-08-07T00:15:07;100255.66;;;27.54;100.00
36014;BME280;22275;43.208;27.620;2023-08-07T00:17:34;100254.22;;;27.38;100.00
36014;BME280;22275;43.208;27.620;2023-08-07T00:20:03;100261.13;;;27.14;100.00
36014;BME280;22275;43.208;27.620;2023-08-07T00:22:31;100255.72;;;26.95;100.00
36014;BME280;22275;43.208;27.620;2023-08-07T00:24:58;100246.16;;;26.99;100.00
36014;BME280;22275;43.208;27.620;2023-08-07T00:27:25;100254.03;;;27.33;100.00
36014;BME280;22275;43.208;27.620;2023-08-07T00:29:52;100266.91;;;27.31;100.00
36014;BME280;22275;43.208;27.620;2023-08-07T00:32:19;100268.59;;;27.32;100.00
36014;BME280;22275;43.208;27.620;2023-08-07T00:34:47;100272.34;;;27.05;100.00
36014;BME280;22275;43.208;27.620;2023-08-07T00:37:15;100279.84;;;27.16;100.00
36014;BME280;22275;43.208;27.620;2023-08-07T00:39:42;100289.84;;;27.15;100.00
36014;BME280;22275;43.208;27.620;2023-08-07T00:42:10;100280.25;;;27.19;100.00
36014;BME280;22275;43.208;27.620;2023-08-07T00:44:37;100278.97;;;27.28;100.00
36014;BME280;22275;43.208;27.620;2023-08-07T00:47:05;100284.59;;;27.33;100.00
36014;BME280;22275;43.208;27.620;2023-08-07T00:49:33;100288.75;;;27.36;100.00
36014;BME280;22275;43.208;27.620;2023-08-07T00:52:01;100282.75;;;27.47;100.00
36014;BME280;22275;43.208;27.620;2023-08-07T00:54:30;100288.78;;;27.29;100.00
36014;BME280;22275;43.208;27.620;2023-08-07T00:57:10;100284.81;;;27.32;100.00
36014;BME280;22275;43.208;27.620;2023-08-07T00:59:38;100291.72;;;26.95;100.00
36014;BME280;22275;43.208;27.620;2023-08-07T01:02:07;100310.22;;;26.78;100.00
36014;BME280;22275;43.208;27.620;2023-08-07T01:04:34;100300.59;;;26.56;100.00
36014;BME280;22275;43.208;27.620;2023-08-07T01:07:01;100309.78;;;26.81;100.00
36014;BME280;22275;43.208;27.620;2023-08-07T01:09:30;100312.28;;;26.90;100.00
36014;BME280;22275;43.208;27.620;2023-08-07T01:12:02;100317.63;;;26.76;100.00
36014;BME280;22275;43.208;27.620;2023-08-07T01:14:36;100312.06;;;26.91;100.00
36014;BME280;22275;43.208;27.620;2023-08-07T01:17:09;100310.78;;;26.67;100.00
36014;BME280;22275;43.208;27.620;2023-08-07T01:19:39;100316.38;;;26.66;100.00
36014;BME280;22275;43.208;27.620;2023-08-07T01:22:09;100312.22;;;26.63;100.00
36014;BME280;22275;43.208;27.620;2023-08-07T01:24:38;100311.88;;;26.93;100.00
36014;BME280;22275;43.208;27.620;2023-08-07T01:27:14;100321.13;;;26.44;100.00
36014;BME280;22275;43.208;27.620;2023-08-07T01:29:46;100308.41;;;26.32;100.00
36014;BME280;22275;43.208;27.620;2023-08-07T01:32:21;100315.28;;;26.41;100.00
36014;BME280;22275;43.208;27.620;2023-08-07T01:34:50;100331.22;;;26.16;100.00
36014;BME280;22275;43.208;27.620;2023-08-07T01:37:21;100339.16;;;25.90;100.00
36014;BME280;22275;43.208;27.620;2023-08-07T01:39:50;100351.41;;;25.92;100.00
36014;BME280;22275;43.208;27.620;2023-08-07T01:42:18;100357.22;;;26.30;100.00
36014;BME280;22275;43.208;27.620;2023-08-07T01:44:45;100366.16;;;26.37;100.00
36014;BME280;22275;43.208;27.620;2023-08-07T01:47:13;100369.72;;;25.97;100.00
36014;BME280;22275;43.208;27.620;2023-08-07T01:49:40;100364.84;;;26.20;100.00
36014;BME280;22275;43.208;27.620;2023-08-07T01:52:08;100370.75;;;26.43;100.00
36014;BME280;22275;43.208;27.620;2023-08-07T01:54:38;100378.22;;;26.28;100.00
36014;BME280;22275;43.208;27.620;2023-08-07T01:57:06;100377.03;;;26.50;100.00
36014;BME280;22275;43.208;27.620;2023-08-07T01:59:33;100368.13;;;26.63;100.00
36014;BME280;22275;43.208;27.620;2023-08-07T02:02:00;100374.09;;;26.39;100.00
36014;BME280;22275;43.208;27.620;2023-08-07T02:04:27;100393.03;;;26.11;100.00
36014;BME280;22275;43.208;27.620;2023-08-07T02:06:54;100376.94;;;26.24;100.00
36014;BME280;22275;43.208;27.620;2023-08-07T02:09:22;100387.56;;;26.32;100.00
36014;BME280;22275;43.208;27.620;2023-08-07T02:11:51;100390.50;;;26.44;100.00
36014;BME280;22275;43.208;27.620;2023-08-07T02:14:18;100387.06;;;26.69;100.00
36014;BME280;22275;43.208;27.620;2023-08-07T02:16:45;100392.78;;;26.40;100.00
36014;BME280;22275;43.208;27.620;2023-08-07T02:19:12;100381.16;;;26.46;100.00
36014;BME280;22275;43.208;27.620;2023-08-07T02:21:39;100397.06;;;26.75;100.00
36014;BME280;22275;43.208;27.620;2023-08-07T02:24:06;100403.78;;;26.93;100.00
36014;BME280;22275;43.208;27.620;2023-08-07T02:26:33;100411.72;;;27.07;100.00
36014;BME280;22275;43.208;27.620;2023-08-07T02:29:02;100398.31;;;26.73;100.00
36014;BME280;22275;43.208;27.620;2023-08-07T02:31:29;100408.34;;;26.38;100.00
36014;BME280;22275;43.208;27.620;2023-08-07T02:33:56;100407.22;;;26.67;100.00
36014;BME280;22275;43.208;27.620;2023-08-07T02:36:23;100412.41;;;26.68;100.00
36014;BME280;22275;43.208;27.620;2023-08-07T02:38:50;100415.59;;;26.78;100.00
36014;BME280;22275;43.208;27.620;2023-08-07T02:41:18;100406.13;;;26.55;100.00
36014;BME280;22275;43.208;27.620;2023-08-07T02:43:45;100422.47;;;26.06;100.00
36014;BME280;22275;43.208;27.620;2023-08-07T02:46:13;100417.63;;;26.22;100.00
36014;BME280;22275;43.208;27.620;2023-08-07T02:48:41;100437.13;;;26.18;100.00
36014;BME280;22275;43.208;27.620;2023-08-07T02:51:08;100427.38;;;26.64;100.00
36014;BME280;22275;43.208;27.620;2023-08-07T02:53:36;100438.22;;;26.77;100.00
36014;BME280;22275;43.208;27.620;2023-08-07T02:56:03;100438.38;;;26.63;100.00
36014;BME280;22275;43.208;27.620;2023-08-07T02:58:31;100431.53;;;26.67;100.00
36014;BME280;22275;43.208;27.620;2023-08-07T03:01:03;100428.06;;;26.79;100.00
36014;BME280;22275;43.208;27.620;2023-08-07T03:03:31;100435.56;;;26.37;100.00
36014;BME280;22275;43.208;27.620;2023-08-07T03:05:59;100440.66;;;25.63;100.00
36014;BME280;22275;43.208;27.620;2023-08-07T03:08:26;100447.78;;;25.70;100.00
36014;BME280;22275;43.208;27.620;2023-08-07T03:10:55;100441.34;;;25.99;100.00
36014;BME280;22275;43.208;27.620;2023-08-07T03:13:22;100445.28;;;25.69;100.00
36014;BME280;22275;43.208;27.620;2023-08-07T03:15:50;100436.41;;;25.75;100.00
36014;BME280;22275;43.208;27.620;2023-08-07T03:18:17;100442.28;;;25.57;100.00
36014;BME280;22275;43.208;27.620;2023-08-07T03:20:45;100436.75;;;25.23;100.00
36014;BME280;22275;43.208;27.620;2023-08-07T03:23:13;100443.88;;;25.31;100.00
36014;BME280;22275;43.208;27.620;2023-08-07T03:25:40;100439.28;;;25.25;100.00
36014;BME280;22275;43.208;27.620;2023-08-07T03:28:07;100448.63;;;25.07;100.00
36014;BME280;22275;43.208;27.620;2023-08-07T03:30:34;100432.66;;;25.27;100.00
36014;BME280;22275;43.208;27.620;2023-08-07T03:33:01;100443.63;;;25.47;100.00
36014;BME280;22275;43.208;27.620;2023-08-07T03:35:28;100445.97;;;25.50;100.00
36014;BME280;22275;43.208;27.620;2023-08-07T03:37:57;100456.00;;;25.41;100.00
36014;BME280;22275;43.208;27.620;2023-08-07T03:40:24;100460.09;;;25.37;100.00
36014;BME280;22275;43.208;27.620;2023-08-07T03:42:51;100439.00;;;25.41;100.00
36014;BME280;22275;43.208;27.620;2023-08-07T03:45:18;100449.97;;;25.18;100.00
36014;BME280;22275;43.208;27.620;2023-08-07T03:47:45;100449.09;;;25.11;100.00
36014;BME280;22275;43.208;27.620;2023-08-07T03:50:13;100450.22;;;25.23;100.00
36014;BME280;22275;43.208;27.620;2023-08-07T03:52:40;100453.84;;;25.30;100.00
36014;BME280;22275;43.208;27.620;2023-08-07T03:55:09;100450.63;;;25.62;100.00
36014;BME280;22275;43.208;27.620;2023-08-07T03:57:36;100448.97;;;25.61;100.00
36014;BME280;22275;43.208;27.620;2023-08-07T04:00:04;100450.63;;;25.62;100.00
36014;BME280;22275;43.208;27.620;2023-08-07T04:02:31;100454.31;;;25.83;100.00
36014;BME280;22275;43.208;27.620;2023-08-07T04:04:59;100455.50;;;26.36;100.00
36014;BME280;22275;43.208;27.620;2023-08-07T04:07:26;100454.09;;;26.46;100.00
36014;BME280;22275;43.208;27.620;2023-08-07T04:09:53;100441.78;;;26.37;100.00
36014;BME280;22275;43.208;27.620;2023-08-07T04:12:22;100446.03;;;26.53;100.00
36014;BME280;22275;43.208;27.620;2023-08-07T04:14:49;100457.47;;;26.55;100.00
36014;BME280;22275;43.208;27.620;2023-08-07T04:17:17;100453.16;;;26.19;100.00
36014;BME280;22275;43.208;27.620;2023-08-07T04:19:44;100455.63;;;25.44;100.00
36014;BME280;22275;43.208;27.620;2023-08-07T04:22:11;100452.38;;;25.49;100.00
36014;BME280;22275;43.208;27.620;2023-08-07T04:24:38;100452.88;;;25.87;100.00
36014;BME280;22275;43.208;27.620;2023-08-07T04:27:06;100447.41;;;25.52;100.00
36014;BME280;22275;43.208;27.620;2023-08-07T04:29:35;100451.03;;;25.59;100.00
36014;BME280;22275;43.208;27.620;2023-08-07T04:32:03;100449.44;;;25.71;100.00
36014;BME280;22275;43.208;27.620;2023-08-07T04:34:31;100450.88;;;25.25;100.00
36014;BME280;22275;43.208;27.620;2023-08-07T04:36:58;100447.03;;;25.13;100.00
36014;BME280;22275;43.208;27.620;2023-08-07T04:39:26;100443.50;;;25.34;100.00
36014;BME280;22275;43.208;27.620;2023-08-07T04:41:53;100451.38;;;25.35;100.00
36014;BME280;22275;43.208;27.620;2023-08-07T04:44:20;100453.25;;;25.13;100.00
36014;BME280;22275;43.208;27.620;2023-08-07T04:46:49;100448.91;;;25.34;100.00
36014;BME280;22275;43.208;27.620;2023-08-07T04:49:16;100455.28;;;25.47;100.00
36014;BME280;22275;43.208;27.620;2023-08-07T04:51:43;100455.91;;;24.92;100.00
36014;BME280;22275;43.208;27.620;2023-08-07T04:54:10;100442.03;;;25.10;100.00
36014;BME280;22275;43.208;27.620;2023-08-07T04:56:37;100444.97;;;25.15;100.00
36014;BME280;22275;43.208;27.620;2023-08-07T04:59:06;100439.41;;;24.81;100.00
36014;BME280;22275;43.208;27.620;2023-08-07T05:01:33;100457.91;;;24.84;100.00
36014;BME280;22275;43.208;27.620;2023-08-07T05:04:02;100445.72;;;25.09;100.00
36014;BME280;22275;43.208;27.620;2023-08-07T05:06:30;100451.44;;;25.21;100.00
36014;BME280;22275;43.208;27.620;2023-08-07T05:08:58;100455.91;;;25.28;100.00
36014;BME280;22275;43.208;27.620;2023-08-07T05:11:25;100457.63;;;25.36;100.00
36014;BME280;22275;43.208;27.620;2023-08-07T05:13:52;100458.84;;;25.33;100.00
36014;BME280;22275;43.208;27.620;2023-08-07T05:16:19;100464.72;;;25.43;100.00
36014;BME280;22275;43.208;27.620;2023-08-07T05:18:46;100469.25;;;25.36;100.00
36014;BME280;22275;43.208;27.620;2023-08-07T05:21:15;100468.88;;;25.60;100.00
36014;BME280;22275;43.208;27.620;2023-08-07T05:23:42;100475.66;;;25.14;100.00
36014;BME280;22275;43.208;27.620;2023-08-07T05:26:09;100475.47;;;25.15;100.00
36014;BME280;22275;43.208;27.620;2023-08-07T05:28:37;100477.72;;;25.33;100.00
36014;BME280;22275;43.208;27.620;2023-08-07T05:31:04;100483.03;;;25.27;100.00
36014;BME280;22275;43.208;27.620;2023-08-07T05:33:32;100496.88;;;25.59;100.00
36014;BME280;22275;43.208;27.620;2023-08-07T05:35:59;100484.66;;;25.63;100.00
36014;BME280;22275;43.208;27.620;2023-08-07T05:38:27;100480.28;;;25.41;100.00
36014;BME280;22275;43.208;27.620;2023-08-07T05:40:54;100480.03;;;25.36;100.00
36014;BME280;22275;43.208;27.620;2023-08-07T05:43:22;100480.41;;;25.76;100.00
36014;BME280;22275;43.208;27.620;2023-08-07T05:45:49;100463.84;;;25.79;100.00
36014;BME280;22275;43.208;27.620;2023-08-07T05:48:16;100472.75;;;26.07;100.00
36014;BME280;22275;43.208;27.620;2023-08-07T05:50:43;100481.63;;;26.01;100.00
36014;BME280;22275;43.208;27.620;2023-08-07T05:53:11;100476.09;;;26.09;100.00
36014;BME280;22275;43.208;27.620;2023-08-07T05:55:40;100483.94;;;25.48;100.00
36014;BME280;22275;43.208;27.620;2023-08-07T05:58:08;100481.56;;;25.88;100.00
36014;BME280;22275;43.208;27.620;2023-08-07T06:00:35;100478.66;;;25.89;100.00
36014;BME280;22275;43.208;27.620;2023-08-07T06:03:02;100487.88;;;26.01;100.00
36014;BME280;22275;43.208;27.620;2023-08-07T06:05:29;100494.16;;;26.36;100.00
36014;BME280;22275;43.208;27.620;2023-08-07T06:07:58;100503.34;;;26.48;100.00
36014;BME280;22275;43.208;27.620;2023-08-07T06:10:25;100494.72;;;26.66;100.00
36014;BME280;22275;43.208;27.620;2023-08-07T06:12:53;100492.78;;;26.88;100.00
36014;BME280;22275;43.208;27.620;2023-08-07T06:15:20;100510.31;;;27.11;100.00
36014;BME280;22275;43.208;27.620;2023-08-07T06:17:48;100515.13;;;27.16;100.00
36014;BME280;22275;43.208;27.620;2023-08-07T06:20:16;100522.19;;;26.69;100.00
36014;BME280;22275;43.208;27.620;2023-08-07T06:22:44;100528.19;;;27.06;100.00
36014;BME280;22275;43.208;27.620;2023-08-07T06:25:11;100530.84;;;26.58;100.00
36014;BME280;22275;43.208;27.620;2023-08-07T06:27:38;100532.59;;;26.72;100.00
36014;BME280;22275;43.208;27.620;2023-08-07T06:30:07;100536.31;;;26.71;100.00
36014;BME280;22275;43.208;27.620;2023-08-07T06:32:35;100532.88;;;26.50;100.00
36014;BME280;22275;43.208;27.620;2023-08-07T06:35:03;100537.28;;;26.57;100.00
36014;BME280;22275;43.208;27.620;2023-08-07T06:37:30;100533.66;;;26.78;100.00
36014;BME280;22275;43.208;27.620;2023-08-07T06:39:57;100538.34;;;26.63;100.00
36014;BME280;22275;43.208;27.620;2023-08-07T06:42:25;100539.41;;;27.03;100.00
36014;BME280;22275;43.208;27.620;2023-08-07T06:44:52;100536.50;;;27.11;100.00
36014;BME280;22275;43.208;27.620;2023-08-07T06:47:20;100539.34;;;27.44;100.00
36014;BME280;22275;43.208;27.620;2023-08-07T06:49:47;100525.66;;;28.11;100.00
36014;BME280;22275;43.208;27.620;2023-08-07T06:52:14;100516.50;;;28.05;100.00
36014;BME280;22275;43.208;27.620;2023-08-07T06:54:42;100520.03;;;28.32;100.00
36014;BME280;22275;43.208;27.620;2023-08-07T06:57:09;100526.25;;;27.73;100.00
36014;BME280;22275;43.208;27.620;2023-08-07T06:59:36;100530.47;;;28.09;100.00
36014;BME280;22275;43.208;27.620;2023-08-07T07:02:04;100534.81;;;28.29;100.00
36014;BME280;22275;43.208;27.620;2023-08-07T07:04:33;100538.75;;;28.40;100.00
36014;BME280;22275;43.208;27.620;2023-08-07T07:07:02;100539.13;;;28.57;100.00
36014;BME280;22275;43.208;27.620;2023-08-07T07:09:29;100530.53;;;28.79;100.00
36014;BME280;22275;43.208;27.620;2023-08-07T07:11:56;100533.31;;;28.66;100.00
36014;BME280;22275;43.208;27.620;2023-08-07T07:14:23;100534.59;;;28.37;100.00
36014;BME280;22275;43.208;27.620;2023-08-07T07:16:50;100539.97;;;28.44;100.00
36014;BME280;22275;43.208;27.620;2023-08-07T07:19:17;100533.16;;;28.22;100.00
36014;BME280;22275;43.208;27.620;2023-08-07T07:21:46;100538.38;;;28.17;100.00
36014;BME280;22275;43.208;27.620;2023-08-07T07:24:13;100548.75;;;28.33;100.00
36014;BME280;22275;43.208;27.620;2023-08-07T07:26:40;100542.50;;;28.00;100.00
36014;BME280;22275;43.208;27.620;2023-08-07T07:29:07;100542.75;;;28.18;100.00
36014;BME280;22275;43.208;27.620;2023-08-07T07:31:35;100538.47;;;28.61;100.00
36014;BME280;22275;43.208;27.620;2023-08-07T07:34:02;100542.25;;;28.67;100.00
36014;BME280;22275;43.208;27.620;2023-08-07T07:36:29;100537.13;;;28.32;100.00
36014;BME280;22275;43.208;27.620;2023-08-07T07:38:58;100537.84;;;28.72;100.00
36014;BME280;22275;43.208;27.620;2023-08-07T07:41:25;100534.53;;;28.70;100.00
36014;BME280;22275;43.208;27.620;2023-08-07T07:43:53;100537.81;;;28.85;100.00
36014;BME280;22275;43.208;27.620;2023-08-07T07:46:22;100529.47;;;28.87;100.00
36014;BME280;22275;43.208;27.620;2023-08-07T07:48:49;100546.91;;;29.04;100.00
36014;BME280;22275;43.208;27.620;2023-08-07T07:51:16;100543.66;;;28.82;100.00
36014;BME280;22275;43.208;27.620;2023-08-07T07:53:44;100535.72;;;28.87;100.00
36014;BME280;22275;43.208;27.620;2023-08-07T07:56:12;100538.31;;;29.14;100.00
36014;BME280;22275;43.208;27.620;2023-08-07T07:58:39;100530.56;;;29.24;100.00
36014;BME280;22275;43.208;27.620;2023-08-07T08:01:07;100534.94;;;29.18;100.00
36014;BME280;22275;43.208;27.620;2023-08-07T08:03:35;100517.22;;;29.16;100.00
36014;BME280;22275;43.208;27.620;2023-08-07T08:06:02;100537.41;;;28.88;100.00
36014;BME280;22275;43.208;27.620;2023-08-07T08:08:29;100536.81;;;29.24;100.00
36014;BME280;22275;43.208;27.620;2023-08-07T08:10:56;100533.09;;;29.88;100.00
36014;BME280;22275;43.208;27.620;2023-08-07T08:13:25;100537.69;;;29.87;100.00
36014;BME280;22275;43.208;27.620;2023-08-07T08:15:52;100539.50;;;29.93;100.00
36014;BME280;22275;43.208;27.620;2023-08-07T08:18:19;100533.56;;;30.28;100.00
36014;BME280;22275;43.208;27.620;2023-08-07T08:20:46;100538.66;;;30.17;100.00
36014;BME280;22275;43.208;27.620;2023-08-07T08:23:14;100547.22;;;29.96;100.00
36014;BME280;22275;43.208;27.620;2023-08-07T08:25:41;100549.25;;;30.01;100.00
36014;BME280;22275;43.208;27.620;2023-08-07T08:28:08;100547.66;;;29.62;100.00
36014;BME280;22275;43.208;27.620;2023-08-07T08:30:36;100557.50;;;29.25;100.00
36014;BME280;22275;43.208;27.620;2023-08-07T08:33:03;100552.31;;;29.11;100.00
36014;BME280;22275;43.208;27.620;2023-08-07T08:35:31;100550.69;;;28.96;100.00
36014;BME280;22275;43.208;27.620;2023-08-07T08:37:58;100544.59;;;29.14;100.00
36014;BME280;22275;43.208;27.620;2023-08-07T08:40:25;100557.72;;;29.17;100.00
36014;BME280;22275;43.208;27.620;2023-08-07T08:42:54;100555.75;;;29.37;100.00
36014;BME280;22275;43.208;27.620;2023-08-07T08:45:25;100555.97;;;29.36;100.00
36014;BME280;22275;43.208;27.620;2023-08-07T08:47:59;100552.81;;;29.70;100.00
36014;BME280;22275;43.208;27.620;2023-08-07T08:50:31;100548.09;;;29.90;100.00
36014;BME280;22275;43.208;27.620;2023-08-07T08:52:59;100553.84;;;29.69;100.00
36014;BME280;22275;43.208;27.620;2023-08-07T08:55:27;100560.09;;;29.45;100.00
36014;BME280;22275;43.208;27.620;2023-08-07T08:57:55;100557.50;;;29.56;100.00
36014;BME280;22275;43.208;27.620;2023-08-07T09:00:26;100549.59;;;29.86;100.00
36014;BME280;22275;43.208;27.620;2023-08-07T09:02:57;100546.84;;;29.24;100.00
36014;BME280;22275;43.208;27.620;2023-08-07T09:05:24;100554.19;;;29.54;100.00
36014;BME280;22275;43.208;27.620;2023-08-07T09:08:00;100559.66;;;29.48;100.00
36014;BME280;22275;43.208;27.620;2023-08-07T09:10:27;100567.69;;;29.30;100.00
36014;BME280;22275;43.208;27.620;2023-08-07T09:13:00;100567.22;;;29.39;100.00
36014;BME280;22275;43.208;27.620;2023-08-07T09:15:30;100576.38;;;29.45;100.00
36014;BME280;22275;43.208;27.620;2023-08-07T09:17:59;100572.66;;;29.71;100.00
36014;BME280;22275;43.208;27.620;2023-08-07T09:20:27;100560.56;;;30.23;100.00
36014;BME280;22275;43.208;27.620;2023-08-07T09:22:55;100573.22;;;29.79;100.00
36014;BME280;22275;43.208;27.620;2023-08-07T09:25:28;100561.41;;;29.67;100.00
36014;BME280;22275;43.208;27.620;2023-08-07T09:27:56;100564.72;;;29.38;100.00
36014;BME280;22275;43.208;27.620;2023-08-07T09:30:26;100573.56;;;29.58;100.00
36014;BME280;22275;43.208;27.620;2023-08-07T09:32:56;100571.50;;;29.60;100.00
36014;BME280;22275;43.208;27.620;2023-08-07T09:35:25;100569.66;;;29.54;100.00
36014;BME280;22275;43.208;27.620;2023-08-07T09:37:52;100560.63;;;29.91;100.00
36014;BME280;22275;43.208;27.620;2023-08-07T09:40:19;100559.16;;;29.57;100.00
36014;BME280;22275;43.208;27.620;2023-08-07T09:42:50;100559.41;;;29.49;100.00
36014;BME280;22275;43.208;27.620;2023-08-07T09:45:21;100555.97;;;29.36;100.00
36014;BME280;22275;43.208;27.620;2023-08-07T09:47:59;100558.94;;;29.59;100.00
36014;BME280;22275;43.208;27.620;2023-08-07T09:50:29;100555.25;;;29.85;100.00
36014;BME280;22275;43.208;27.620;2023-08-07T09:52:57;100547.00;;;30.23;100.00
36014;BME280;22275;43.208;27.620;2023-08-07T09:55:25;100555.53;;;29.70;100.00
36014;BME280;22275;43.208;27.620;2023-08-07T09:57:52;100547.13;;;30.03;100.00
36014;BME280;22275;43.208;27.620;2023-08-07T10:00:19;100561.94;;;30.32;100.00
36014;BME280;22275;43.208;27.620;2023-08-07T10:02:47;100559.91;;;30.02;100.00
36014;BME280;22275;43.208;27.620;2023-08-07T10:05:15;100547.53;;;29.82;100.00
36014;BME280;22275;43.208;27.620;2023-08-07T10:07:43;100563.00;;;29.75;100.00
36014;BME280;22275;43.208;27.620;2023-08-07T10:10:11;100569.28;;;30.06;100.00
36014;BME280;22275;43.208;27.620;2023-08-07T10:12:38;100560.16;;;29.94;100.00
36014;BME280;22275;43.208;27.620;2023-08-07T10:15:06;100549.97;;;29.90;100.00
36014;BME280;22275;43.208;27.620;2023-08-07T10:17:34;100559.66;;;30.29;100.00
36014;BME280;22275;43.208;27.620;2023-08-07T10:20:01;100555.59;;;30.19;100.00
36014;BME280;22275;43.208;27.620;2023-08-07T10:22:30;100548.59;;;30.30;100.00
36014;BME280;22275;43.208;27.620;2023-08-07T10:25:01;100553.53;;;30.15;100.00
36014;BME280;22275;43.208;27.620;2023-08-07T10:27:31;100544.16;;;30.11;100.00
36014;BME280;22275;43.208;27.620;2023-08-07T10:30:00;100553.03;;;30.25;100.00
36014;BME280;22275;43.208;27.620;2023-08-07T10:32:28;100547.41;;;30.44;100.00
36014;BME280;22275;43.208;27.620;2023-08-07T10:34:56;100557.75;;;30.54;100.00
36014;BME280;22275;43.208;27.620;2023-08-07T10:37:38;100544.03;;;30.67;100.00
36014;BME280;22275;43.208;27.620;2023-08-07T10:40:09;100544.47;;;30.21;100.00
36014;BME280;22275;43.208;27.620;2023-08-07T10:42:56;100541.41;;;30.36;100.00
36014;BME280;22275;43.208;27.620;2023-08-07T10:45:25;100545.72;;;30.68;100.00
36014;BME280;22275;43.208;27.620;2023-08-07T10:48:03;100543.75;;;30.93;100.00
36014;BME280;22275;43.208;27.620;2023-08-07T10:50:33;100547.81;;;31.02;100.00
36014;BME280;22275;43.208;27.620;2023-08-07T10:53:01;100549.94;;;30.82;100.00
36014;BME280;22275;43.208;27.620;2023-08-07T10:55:43;100560.19;;;30.80;100.00
36014;BME280;22275;43.208;27.620;2023-08-07T10:58:21;100548.25;;;30.81;100.00
36014;BME280;22275;43.208;27.620;2023-08-07T11:00:50;100547.97;;;31.07;100.00
36014;BME280;22275;43.208;27.620;2023-08-07T11:03:26;100539.13;;;31.42;100.00
36014;BME280;22275;43.208;27.620;2023-08-07T11:05:54;100551.72;;;31.24;100.00
36014;BME280;22275;43.208;27.620;2023-08-07T11:08:31;100535.53;;;31.29;100.00
36014;BME280;22275;43.208;27.620;2023-08-07T11:11:05;100540.84;;;31.24;100.00
36014;BME280;22275;43.208;27.620;2023-08-07T11:13:33;100543.13;;;31.09;100.00
36014;BME280;22275;43.208;27.620;2023-08-07T11:16:00;100545.22;;;30.71;100.00
36014;BME280;22275;43.208;27.620;2023-08-07T11:18:28;100545.53;;;30.81;100.00
36014;BME280;22275;43.208;27.620;2023-08-07T11:20:57;100538.41;;;31.46;100.00
36014;BME280;22275;43.208;27.620;2023-08-07T11:23:25;100531.97;;;31.59;100.00
36014;BME280;22275;43.208;27.620;2023-08-07T11:25:53;100533.03;;;31.58;100.00
36014;BME280;22275;43.208;27.620;2023-08-07T11:28:23;100537.91;;;31.67;100.00
36014;BME280;22275;43.208;27.620;2023-08-07T11:30:51;100532.94;;;31.76;100.00
36014;BME280;22275;43.208;27.620;2023-08-07T11:33:19;100531.03;;;31.65;100.00
36014;BME280;22275;43.208;27.620;2023-08-07T11:35:47;100530.69;;;31.61;100.00
36014;BME280;22275;43.208;27.620;2023-08-07T11:38:29;100548.25;;;31.88;100.00
36014;BME280;22275;43.208;27.620;2023-08-07T11:40:58;100526.34;;;31.95;100.00
36014;BME280;22275;43.208;27.620;2023-08-07T11:43:28;100532.69;;;31.66;100.00
36014;BME280;22275;43.208;27.620;2023-08-07T11:45:57;100535.94;;;31.45;100.00
36014;BME280;22275;43.208;27.620;2023-08-07T11:48:25;100528.97;;;31.49;100.00
36014;BME280;22275;43.208;27.620;2023-08-07T11:50:52;100532.00;;;31.41;100.00
36014;BME280;22275;43.208;27.620;2023-08-07T11:53:20;100527.34;;;31.59;100.00
36014;BME280;22275;43.208;27.620;2023-08-07T11:55:51;100529.22;;;31.47;100.00
36014;BME280;22275;43.208;27.620;2023-08-07T11:58:20;100518.91;;;31.49;100.00
36014;BME280;22275;43.208;27.620;2023-08-07T12:00:49;100520.34;;;31.52;100.00
36014;BME280;22275;43.208;27.620;2023-08-07T12:03:26;100518.81;;;32.20;100.00
36014;BME280;22275;43.208;27.620;2023-08-07T12:05:54;100510.81;;;32.42;100.00
36014;BME280;22275;43.208;27.620;2023-08-07T12:08:22;100515.00;;;32.21;100.00
36014;BME280;22275;43.208;27.620;2023-08-07T12:10:50;100519.50;;;32.27;100.00
36014;BME280;22275;43.208;27.620;2023-08-07T12:13:23;100513.34;;;32.55;100.00
36014;BME280;22275;43.208;27.620;2023-08-07T12:15:53;100508.97;;;32.54;100.00
36014;BME280;22275;43.208;27.620;2023-08-07T12:18:24;100519.38;;;32.69;98.03
36014;BME280;22275;43.208;27.620;2023-08-07T12:20:54;100515.94;;;32.62;98.93
36014;BME280;22275;43.208;27.620;2023-08-07T12:23:23;100520.44;;;32.68;100.00
36014;BME280;22275;43.208;27.620;2023-08-07T12:25:50;100510.09;;;31.77;96.08
36014;BME280;22275;43.208;27.620;2023-08-07T12:28:19;100506.22;;;32.19;94.02
36014;BME280;22275;43.208;27.620;2023-08-07T12:30:46;100492.97;;;32.11;93.44
36014;BME280;22275;43.208;27.620;2023-08-07T12:33:15;100494.31;;;31.79;92.98
36014;BME280;22275;43.208;27.620;2023-08-07T12:35:42;100497.53;;;31.64;95.94